sensor_id;sensor_type;location;lat;lon;timestamp;temperature;humidity
33927;DHT22;20485;50.992;5.550;2023-06-14T00:00:41;16.30;99.90
33927;DHT22;20485;50.992;5.550;2023-06-14T00:03:08;16.20;99.90
33927;DHT22;20485;50.992;5.550;2023-06-14T00:05:36;16.20;99.90
33927;DHT22;20485;50.992;5.550;2023-06-14T00:08:07;16.20;99.90
33927;DHT22;20485;50.992;5.550;2023-06-14T00:10:34;16.10;99.90
33927;DHT22;20485;50.992;5.550;2023-06-14T00:13:04;16.10;99.90
33927;DHT22;20485;50.992;5.550;2023-06-14T00:15:31;16.10;99.90
33927;DHT22;20485;50.992;5.550;2023-06-14T00:17:57;16.10;99.90
33927;DHT22;20485;50.992;5.550;2023-06-14T00:20:30;16.10;99.90
33927;DHT22;20485;50.992;5.550;2023-06-14T00:22:56;16.00;99.90
33927;DHT22;20485;50.992;5.550;2023-06-14T00:25:25;16.00;99.90
33927;DHT22;20485;50.992;5.550;2023-06-14T00:27:52;16.00;99.90
33927;DHT22;20485;50.992;5.550;2023-06-14T00:30:18;15.90;99.90
33927;DHT22;20485;50.992;5.550;2023-06-14T00:32:45;15.80;99.90
33927;DHT22;20485;50.992;5.550;2023-06-14T00:35:11;14.10;99.90
33927;DHT22;20485;50.992;5.550;2023-06-14T00:37:37;15.80;99.90
33927;DHT22;20485;50.992;5.550;2023-06-14T00:40:04;15.90;99.90
33927;DHT22;20485;50.992;5.550;2023-06-14T00:42:30;15.90;99.90
33927;DHT22;20485;50.992;5.550;2023-06-14T00:44:56;15.90;99.90
33927;DHT22;20485;50.992;5.550;2023-06-14T00:47:23;15.90;99.90
33927;DHT22;20485;50.992;5.550;2023-06-14T00:49:50;15.80;99.90
33927;DHT22;20485;50.992;5.550;2023-06-14T00:52:19;15.80;99.90
33927;DHT22;20485;50.992;5.550;2023-06-14T00:54:46;15.70;99.90
33927;DHT22;20485;50.992;5.550;2023-06-14T00:57:13;15.70;99.90
33927;DHT22;20485;50.992;5.550;2023-06-14T00:59:46;15.60;99.90
33927;DHT22;20485;50.992;5.550;2023-06-14T01:02:13;15.50;99.90
33927;DHT22;20485;50.992;5.550;2023-06-14T01:04:41;15.40;99.90
33927;DHT22;20485;50.992;5.550;2023-06-14T01:10:51;15.40;99.90
33927;DHT22;20485;50.992;5.550;2023-06-14T01:13:49;16.50;99.90
33927;DHT22;20485;50.992;5.550;2023-06-14T01:16:17;15.60;99.90
33927;DHT22;20485;50.992;5.550;2023-06-14T01:18:59;15.30;99.90
33927;DHT22;20485;50.992;5.550;2023-06-14T02:04:32;15.70;99.90
33927;DHT22;20485;50.992;5.550;2023-06-14T02:07:01;15.60;99.90
33927;DHT22;20485;50.992;5.550;2023-06-14T02:15:23;15.60;99.90
33927;DHT22;20485;50.992;5.550;2023-06-14T02:18:07;15.40;99.90
33927;DHT22;20485;50.992;5.550;2023-06-14T03:27:41;14.90;99.90
33927;DHT22;20485;50.992;5.550;2023-06-14T04:41:25;15.80;99.90
33927;DHT22;20485;50.992;5.550;2023-06-14T04:43:57;15.10;99.90
33927;DHT22;20485;50.992;5.550;2023-06-14T04:46:30;16.00;99.90
33927;DHT22;20485;50.992;5.550;2023-06-14T04:48:57;16.00;99.90
33927;DHT22;20485;50.992;5.550;2023-06-14T04:51:28;15.90;99.90
33927;DHT22;20485;50.992;5.550;2023-06-14T04:59:43;15.90;99.90
33927;DHT22;20485;50.992;5.550;2023-06-14T05:02:18;16.80;99.90
33927;DHT22;20485;50.992;5.550;2023-06-14T05:04:51;16.60;99.90
33927;DHT22;20485;50.992;5.550;2023-06-14T05:07:28;17.00;99.90
33927;DHT22;20485;50.992;5.550;2023-06-14T05:09:56;16.80;99.90
33927;DHT22;20485;50.992;5.550;2023-06-14T05:12:24;16.20;99.90
33927;DHT22;20485;50.992;5.550;2023-06-14T05:14:54;17.00;99.90
33927;DHT22;20485;50.992;5.550;2023-06-14T05:17:27;17.10;99.90
33927;DHT22;20485;50.992;5.550;2023-06-14T05:19:55;17.30;99.90
33927;DHT22;20485;50.992;5.550;2023-06-14T05:22:24;17.50;99.90
33927;DHT22;20485;50.992;5.550;2023-06-14T05:25:04;17.60;99.90
33927;DHT22;20485;50.992;5.550;2023-06-14T05:27:36;17.60;99.90
33927;DHT22;20485;50.992;5.550;2023-06-14T05:30:07;17.80;99.90
33927;DHT22;20485;50.992;5.550;2023-06-14T05:32:38;17.60;99.90
33927;DHT22;20485;50.992;5.550;2023-06-14T05:35:06;17.60;99.90
33927;DHT22;20485;50.992;5.550;2023-06-14T05:37:34;17.80;99.90
33927;DHT22;20485;50.992;5.550;2023-06-14T05:40:05;18.10;99.90
33927;DHT22;20485;50.992;5.550;2023-06-14T05:42:35;18.20;99.90
33927;DHT22;20485;50.992;5.550;2023-06-14T05:45:02;18.30;99.90
33927;DHT22;20485;50.992;5.550;2023-06-14T05:47:30;16.00;99.90
33927;DHT22;20485;50.992;5.550;2023-06-14T05:49:58;19.00;99.90
33927;DHT22;20485;50.992;5.550;2023-06-14T05:52:27;18.80;99.90
33927;DHT22;20485;50.992;5.550;2023-06-14T05:54:57;18.90;99.90
33927;DHT22;20485;50.992;5.550;2023-06-14T05:57:25;18.90;99.90
33927;DHT22;20485;50.992;5.550;2023-06-14T06:00:02;18.90;99.90
33927;DHT22;20485;50.992;5.550;2023-06-14T06:02:43;18.80;99.90
33927;DHT22;20485;50.992;5.550;2023-06-14T06:05:12;19.10;99.90
33927;DHT22;20485;50.992;5.550;2023-06-14T06:07:39;18.80;99.90
33927;DHT22;20485;50.992;5.550;2023-06-14T06:10:10;18.90;99.90
33927;DHT22;20485;50.992;5.550;2023-06-14T06:12:36;19.00;99.90
33927;DHT22;20485;50.992;5.550;2023-06-14T06:15:01;19.00;99.90
33927;DHT22;20485;50.992;5.550;2023-06-14T06:17:28;19.00;99.90
33927;DHT22;20485;50.992;5.550;2023-06-14T06:19:54;19.10;99.90
33927;DHT22;20485;50.992;5.550;2023-06-14T06:22:20;19.00;99.90
33927;DHT22;20485;50.992;5.550;2023-06-14T06:24:45;18.90;99.90
33927;DHT22;20485;50.992;5.550;2023-06-14T06:27:11;19.10;99.90
33927;DHT22;20485;50.992;5.550;2023-06-14T06:29:38;19.20;99.60
33927;DHT22;20485;50.992;5.550;2023-06-14T06:32:04;19.10;98.50
33927;DHT22;20485;50.992;5.550;2023-06-14T06:34:30;19.10;98.70
33927;DHT22;20485;50.992;5.550;2023-06-14T06:36:55;19.20;99.20
33927;DHT22;20485;50.992;5.550;2023-06-14T06:39:21;19.20;99.20
33927;DHT22;20485;50.992;5.550;2023-06-14T06:41:47;19.20;98.10
33927;DHT22;20485;50.992;5.550;2023-06-14T06:44:13;19.10;97.80
33927;DHT22;20485;50.992;5.550;2023-06-14T06:59:02;19.40;97.90
33927;DHT22;20485;50.992;5.550;2023-06-14T07:01:28;19.40;97.60
33927;DHT22;20485;50.992;5.550;2023-06-14T07:03:55;19.40;96.90
33927;DHT22;20485;50.992;5.550;2023-06-14T07:06:21;19.60;97.60
33927;DHT22;20485;50.992;5.550;2023-06-14T07:08:47;19.60;96.00
33927;DHT22;20485;50.992;5.550;2023-06-14T07:11:16;19.50;96.90
33927;DHT22;20485;50.992;5.550;2023-06-14T07:13:41;19.60;97.50
33927;DHT22;20485;50.992;5.550;2023-06-14T07:16:07;19.60;96.10
33927;DHT22;20485;50.992;5.550;2023-06-14T07:18:33;19.50;95.70
33927;DHT22;20485;50.992;5.550;2023-06-14T07:20:59;19.50;96.80
33927;DHT22;20485;50.992;5.550;2023-06-14T07:23:25;19.70;96.50
33927;DHT22;20485;50.992;5.550;2023-06-14T07:25:51;19.80;96.10
33927;DHT22;20485;50.992;5.550;2023-06-14T07:28:17;20.00;96.70
33927;DHT22;20485;50.992;5.550;2023-06-14T07:30:43;20.00;96.30
33927;DHT22;20485;50.992;5.550;2023-06-14T07:33:09;20.00;95.30
33927;DHT22;20485;50.992;5.550;2023-06-14T07:35:35;20.20;95.60
33927;DHT22;20485;50.992;5.550;2023-06-14T07:38:01;20.20;96.20
33927;DHT22;20485;50.992;5.550;2023-06-14T07:40:27;20.30;95.70
33927;DHT22;20485;50.992;5.550;2023-06-14T07:42:53;20.40;94.50
33927;DHT22;20485;50.992;5.550;2023-06-14T07:45:20;20.40;94.40
33927;DHT22;20485;50.992;5.550;2023-06-14T07:47:46;20.50;94.30
33927;DHT22;20485;50.992;5.550;2023-06-14T07:50:11;20.50;94.50
33927;DHT22;20485;50.992;5.550;2023-06-14T07:52:39;20.50;93.80
33927;DHT22;20485;50.992;5.550;2023-06-14T07:55:05;20.30;93.60
33927;DHT22;20485;50.992;5.550;2023-06-14T07:57:31;20.40;93.50
33927;DHT22;20485;50.992;5.550;2023-06-14T07:59:57;20.50;93.20
33927;DHT22;20485;50.992;5.550;2023-06-14T08:02:23;20.60;92.80
33927;DHT22;20485;50.992;5.550;2023-06-14T08:04:48;20.70;92.80
33927;DHT22;20485;50.992;5.550;2023-06-14T08:07:14;20.70;92.50
33927;DHT22;20485;50.992;5.550;2023-06-14T08:09:40;20.80;93.10
33927;DHT22;20485;50.992;5.550;2023-06-14T08:12:07;20.80;92.40
33927;DHT22;20485;50.992;5.550;2023-06-14T08:14:35;20.90;91.80
33927;DHT22;20485;50.992;5.550;2023-06-14T08:17:01;21.00;92.80
33927;DHT22;20485;50.992;5.550;2023-06-14T08:19:27;21.00;91.90
33927;DHT22;20485;50.992;5.550;2023-06-14T08:21:52;21.10;92.30
33927;DHT22;20485;50.992;5.550;2023-06-14T08:24:21;21.20;92.30
33927;DHT22;20485;50.992;5.550;2023-06-14T08:26:50;21.30;92.30
33927;DHT22;20485;50.992;5.550;2023-06-14T08:29:15;20.40;90.80
33927;DHT22;20485;50.992;5.550;2023-06-14T08:31:41;21.00;91.50
33927;DHT22;20485;50.992;5.550;2023-06-14T08:34:07;21.20;91.90
33927;DHT22;20485;50.992;5.550;2023-06-14T08:36:33;21.30;91.40
33927;DHT22;20485;50.992;5.550;2023-06-14T08:38:58;21.40;91.50
33927;DHT22;20485;50.992;5.550;2023-06-14T08:41:24;21.50;92.40
33927;DHT22;20485;50.992;5.550;2023-06-14T08:43:52;21.70;91.80
33927;DHT22;20485;50.992;5.550;2023-06-14T08:46:19;21.70;88.90
33927;DHT22;20485;50.992;5.550;2023-06-14T08:48:51;21.60;89.20
33927;DHT22;20485;50.992;5.550;2023-06-14T08:51:21;21.50;88.10
33927;DHT22;20485;50.992;5.550;2023-06-14T08:53:57;21.40;89.60
33927;DHT22;20485;50.992;5.550;2023-06-14T08:56:26;21.70;90.00
33927;DHT22;20485;50.992;5.550;2023-06-14T08:58:53;21.70;87.20
33927;DHT22;20485;50.992;5.550;2023-06-14T09:01:20;21.80;87.60
33927;DHT22;20485;50.992;5.550;2023-06-14T09:03:48;21.70;88.90
33927;DHT22;20485;50.992;5.550;2023-06-14T09:06:14;21.70;85.90
33927;DHT22;20485;50.992;5.550;2023-06-14T09:08:45;21.90;86.80
33927;DHT22;20485;50.992;5.550;2023-06-14T09:11:13;22.00;88.80
33927;DHT22;20485;50.992;5.550;2023-06-14T09:13:40;22.00;85.30
33927;DHT22;20485;50.992;5.550;2023-06-14T09:16:07;22.10;85.50
33927;DHT22;20485;50.992;5.550;2023-06-14T09:18:35;22.10;83.60
33927;DHT22;20485;50.992;5.550;2023-06-14T09:21:00;22.20;82.70
33927;DHT22;20485;50.992;5.550;2023-06-14T09:23:26;22.20;82.00
33927;DHT22;20485;50.992;5.550;2023-06-14T09:25:52;22.20;83.00
33927;DHT22;20485;50.992;5.550;2023-06-14T09:28:18;22.30;80.60
33927;DHT22;20485;50.992;5.550;2023-06-14T09:30:45;22.30;79.30
33927;DHT22;20485;50.992;5.550;2023-06-14T09:33:17;22.30;83.60
33927;DHT22;20485;50.992;5.550;2023-06-14T09:35:45;22.40;82.60
33927;DHT22;20485;50.992;5.550;2023-06-14T09:38:11;22.40;83.10
33927;DHT22;20485;50.992;5.550;2023-06-14T09:40:37;22.50;82.50
33927;DHT22;20485;50.992;5.550;2023-06-14T09:43:07;22.60;82.20
33927;DHT22;20485;50.992;5.550;2023-06-14T09:45:36;22.50;79.30
33927;DHT22;20485;50.992;5.550;2023-06-14T09:48:05;22.60;79.60
33927;DHT22;20485;50.992;5.550;2023-06-14T09:50:32;22.70;80.00
33927;DHT22;20485;50.992;5.550;2023-06-14T09:53:02;22.80;78.70
33927;DHT22;20485;50.992;5.550;2023-06-14T09:55:31;22.90;81.10
33927;DHT22;20485;50.992;5.550;2023-06-14T09:58:00;23.10;76.60
33927;DHT22;20485;50.992;5.550;2023-06-14T10:00:30;23.00;75.90
33927;DHT22;20485;50.992;5.550;2023-06-14T10:03:03;22.80;76.90
33927;DHT22;20485;50.992;5.550;2023-06-14T10:05:32;22.90;80.80
33927;DHT22;20485;50.992;5.550;2023-06-14T10:08:08;22.90;77.60
33927;DHT22;20485;50.992;5.550;2023-06-14T10:10:38;22.90;78.40
33927;DHT22;20485;50.992;5.550;2023-06-14T10:13:04;23.00;78.90
33927;DHT22;20485;50.992;5.550;2023-06-14T10:19:05;22.90;78.90
33927;DHT22;20485;50.992;5.550;2023-06-14T10:21:51;23.00;80.20
33927;DHT22;20485;50.992;5.550;2023-06-14T10:24:29;23.20;77.00
33927;DHT22;20485;50.992;5.550;2023-06-14T10:26:57;23.20;79.20
33927;DHT22;20485;50.992;5.550;2023-06-14T10:29:24;23.30;79.10
33927;DHT22;20485;50.992;5.550;2023-06-14T10:31:53;23.20;76.50
33927;DHT22;20485;50.992;5.550;2023-06-14T10:37:10;23.10;75.80
33927;DHT22;20485;50.992;5.550;2023-06-14T10:39:44;23.10;73.70
33927;DHT22;20485;50.992;5.550;2023-06-14T10:42:11;23.10;76.00
33927;DHT22;20485;50.992;5.550;2023-06-14T10:44:43;23.20;73.60
33927;DHT22;20485;50.992;5.550;2023-06-14T10:49:56;23.50;76.40
33927;DHT22;20485;50.992;5.550;2023-06-14T10:52:25;23.70;71.00
33927;DHT22;20485;50.992;5.550;2023-06-14T10:55:13;23.70;68.00
33927;DHT22;20485;50.992;5.550;2023-06-14T11:00:09;23.70;70.60
33927;DHT22;20485;50.992;5.550;2023-06-14T11:05:25;24.00;70.30
33927;DHT22;20485;50.992;5.550;2023-06-14T11:11:00;24.20;67.40
33927;DHT22;20485;50.992;5.550;2023-06-14T11:13:27;24.10;63.90
33927;DHT22;20485;50.992;5.550;2023-06-14T11:15:54;23.90;63.30
33927;DHT22;20485;50.992;5.550;2023-06-14T11:18:22;24.00;64.50
33927;DHT22;20485;50.992;5.550;2023-06-14T11:20:52;23.90;64.50
33927;DHT22;20485;50.992;5.550;2023-06-14T11:23:18;23.80;63.40
33927;DHT22;20485;50.992;5.550;2023-06-14T11:25:52;23.60;60.50
33927;DHT22;20485;50.992;5.550;2023-06-14T11:28:18;23.70;62.40
33927;DHT22;20485;50.992;5.550;2023-06-14T11:30:45;23.90;62.10
33927;DHT22;20485;50.992;5.550;2023-06-14T11:33:17;24.00;61.70
33927;DHT22;20485;50.992;5.550;2023-06-14T11:35:43;24.00;64.60
33927;DHT22;20485;50.992;5.550;2023-06-14T11:38:10;24.20;65.40
33927;DHT22;20485;50.992;5.550;2023-06-14T11:40:38;24.50;63.60
33927;DHT22;20485;50.992;5.550;2023-06-14T11:43:04;24.10;61.70
33927;DHT22;20485;50.992;5.550;2023-06-14T11:45:30;24.10;61.90
33927;DHT22;20485;50.992;5.550;2023-06-14T11:47:57;24.00;62.40
33927;DHT22;20485;50.992;5.550;2023-06-14T11:50:23;24.20;64.20
33927;DHT22;20485;50.992;5.550;2023-06-14T11:52:57;24.50;65.10
33927;DHT22;20485;50.992;5.550;2023-06-14T11:55:25;24.70;66.30
33927;DHT22;20485;50.992;5.550;2023-06-14T11:57:53;24.60;62.60
33927;DHT22;20485;50.992;5.550;2023-06-14T12:00:19;24.40;66.90
33927;DHT22;20485;50.992;5.550;2023-06-14T12:02:53;24.30;62.70
33927;DHT22;20485;50.992;5.550;2023-06-14T12:05:21;24.40;65.10
33927;DHT22;20485;50.992;5.550;2023-06-14T12:07:48;24.40;62.50
33927;DHT22;20485;50.992;5.550;2023-06-14T12:10:14;24.30;63.70
33927;DHT22;20485;50.992;5.550;2023-06-14T12:12:40;24.20;63.80
33927;DHT22;20485;50.992;5.550;2023-06-14T12:15:08;24.40;63.70
33927;DHT22;20485;50.992;5.550;2023-06-14T12:17:35;24.10;64.00
33927;DHT22;20485;50.992;5.550;2023-06-14T12:20:19;24.40;64.70
33927;DHT22;20485;50.992;5.550;2023-06-14T12:23:02;24.70;66.10
33927;DHT22;20485;50.992;5.550;2023-06-14T12:25:36;24.50;64.80
33927;DHT22;20485;50.992;5.550;2023-06-14T12:28:08;24.30;64.60
33927;DHT22;20485;50.992;5.550;2023-06-14T12:30:36;24.50;65.90
33927;DHT22;20485;50.992;5.550;2023-06-14T12:33:05;24.80;65.60
33927;DHT22;20485;50.992;5.550;2023-06-14T12:35:31;24.40;63.50
33927;DHT22;20485;50.992;5.550;2023-06-14T12:37:57;24.60;62.90
33927;DHT22;20485;50.992;5.550;2023-06-14T12:40:23;24.60;63.80
33927;DHT22;20485;50.992;5.550;2023-06-14T12:42:48;24.60;64.60
33927;DHT22;20485;50.992;5.550;2023-06-14T12:45:14;24.80;64.50
33927;DHT22;20485;50.992;5.550;2023-06-14T12:47:40;24.90;63.60
33927;DHT22;20485;50.992;5.550;2023-06-14T12:50:06;24.90;65.50
33927;DHT22;20485;50.992;5.550;2023-06-14T12:52:32;24.80;65.60
33927;DHT22;20485;50.992;5.550;2023-06-14T12:55:05;24.90;64.70
33927;DHT22;20485;50.992;5.550;2023-06-14T12:57:31;24.80;64.10
33927;DHT22;20485;50.992;5.550;2023-06-14T12:59:57;25.00;64.30
33927;DHT22;20485;50.992;5.550;2023-06-14T13:02:22;24.90;65.30
33927;DHT22;20485;50.992;5.550;2023-06-14T13:04:50;25.00;64.90
33927;DHT22;20485;50.992;5.550;2023-06-14T13:07:16;25.00;65.50
33927;DHT22;20485;50.992;5.550;2023-06-14T13:09:42;25.10;64.30
33927;DHT22;20485;50.992;5.550;2023-06-14T13:12:10;25.10;64.50
33927;DHT22;20485;50.992;5.550;2023-06-14T13:14:43;25.10;64.60
33927;DHT22;20485;50.992;5.550;2023-06-14T13:17:09;25.40;65.70
33927;DHT22;20485;50.992;5.550;2023-06-14T13:19:36;25.30;62.60
33927;DHT22;20485;50.992;5.550;2023-06-14T13:22:02;25.30;63.50
33927;DHT22;20485;50.992;5.550;2023-06-14T13:24:29;25.40;65.20
33927;DHT22;20485;50.992;5.550;2023-06-14T13:27:04;25.00;64.00
33927;DHT22;20485;50.992;5.550;2023-06-14T15:39:53;33.20;51.40
33927;DHT22;20485;50.992;5.550;2023-06-14T15:42:24;33.90;49.50
33927;DHT22;20485;50.992;5.550;2023-06-14T15:47:33;33.40;50.40
33927;DHT22;20485;50.992;5.550;2023-06-14T15:50:02;33.80;50.60
33927;DHT22;20485;50.992;5.550;2023-06-14T15:52:37;33.30;48.20
33927;DHT22;20485;50.992;5.550;2023-06-14T15:55:05;33.40;51.10
33927;DHT22;20485;50.992;5.550;2023-06-14T15:57:31;32.90;49.80
33927;DHT22;20485;50.992;5.550;2023-06-14T16:00:04;32.70;48.70
33927;DHT22;20485;50.992;5.550;2023-06-14T16:02:31;32.60;49.20
33927;DHT22;20485;50.992;5.550;2023-06-14T16:05:04;31.00;50.70
33927;DHT22;20485;50.992;5.550;2023-06-14T16:07:35;30.60;53.20
33927;DHT22;20485;50.992;5.550;2023-06-14T16:10:01;29.50;54.10
33927;DHT22;20485;50.992;5.550;2023-06-14T16:12:29;28.50;55.20
33927;DHT22;20485;50.992;5.550;2023-06-14T16:14:57;27.70;57.50
33927;DHT22;20485;50.992;5.550;2023-06-14T16:17:27;26.80;59.10
33927;DHT22;20485;50.992;5.550;2023-06-14T16:19:54;26.20;59.40
33927;DHT22;20485;50.992;5.550;2023-06-14T16:22:21;25.80;59.80
33927;DHT22;20485;50.992;5.550;2023-06-14T16:24:48;25.50;62.10
33927;DHT22;20485;50.992;5.550;2023-06-14T16:27:16;25.40;61.30
33927;DHT22;20485;50.992;5.550;2023-06-14T16:29:43;25.20;61.80
33927;DHT22;20485;50.992;5.550;2023-06-14T16:32:10;25.30;61.30
33927;DHT22;20485;50.992;5.550;2023-06-14T16:34:38;25.20;62.70
33927;DHT22;20485;50.992;5.550;2023-06-14T16:37:05;25.20;62.10
33927;DHT22;20485;50.992;5.550;2023-06-14T16:39:32;25.50;62.10
33927;DHT22;20485;50.992;5.550;2023-06-14T16:41:59;24.50;62.80
33927;DHT22;20485;50.992;5.550;2023-06-14T16:44:27;25.20;62.00
33927;DHT22;20485;50.992;5.550;2023-06-14T16:47:01;25.30;61.80
33927;DHT22;20485;50.992;5.550;2023-06-14T16:49:29;25.30;62.70
33927;DHT22;20485;50.992;5.550;2023-06-14T16:51:58;25.30;62.70
33927;DHT22;20485;50.992;5.550;2023-06-14T16:54:26;25.10;61.20
33927;DHT22;20485;50.992;5.550;2023-06-14T16:56:54;25.30;62.60
33927;DHT22;20485;50.992;5.550;2023-06-14T16:59:20;25.20;62.40
33927;DHT22;20485;50.992;5.550;2023-06-14T17:01:51;25.10;62.20
33927;DHT22;20485;50.992;5.550;2023-06-14T17:04:21;25.10;62.80
33927;DHT22;20485;50.992;5.550;2023-06-14T17:06:49;25.10;63.40
33927;DHT22;20485;50.992;5.550;2023-06-14T17:09:23;25.20;63.60
33927;DHT22;20485;50.992;5.550;2023-06-14T17:11:54;25.30;63.30
33927;DHT22;20485;50.992;5.550;2023-06-14T17:14:26;25.20;61.20
33927;DHT22;20485;50.992;5.550;2023-06-14T17:16:52;25.10;63.50
33927;DHT22;20485;50.992;5.550;2023-06-14T17:19:18;25.00;62.40
33927;DHT22;20485;50.992;5.550;2023-06-14T17:21:43;25.10;63.30
33927;DHT22;20485;50.992;5.550;2023-06-14T17:24:14;25.20;64.30
33927;DHT22;20485;50.992;5.550;2023-06-14T17:26:40;25.20;63.50
33927;DHT22;20485;50.992;5.550;2023-06-14T17:29:05;25.40;65.40
33927;DHT22;20485;50.992;5.550;2023-06-14T17:31:31;25.70;62.80
33927;DHT22;20485;50.992;5.550;2023-06-14T17:33:57;26.00;61.60
33927;DHT22;20485;50.992;5.550;2023-06-14T17:36:23;27.10;63.00
33927;DHT22;20485;50.992;5.550;2023-06-14T17:38:48;28.30;58.50
33927;DHT22;20485;50.992;5.550;2023-06-14T17:41:17;29.20;58.00
33927;DHT22;20485;50.992;5.550;2023-06-14T17:43:45;29.70;57.00
33927;DHT22;20485;50.992;5.550;2023-06-14T17:46:11;29.40;56.70
33927;DHT22;20485;50.992;5.550;2023-06-14T22:07:32;18.00;95.00
33927;DHT22;20485;50.992;5.550;2023-06-14T22:09:58;18.60;94.90
33927;DHT22;20485;50.992;5.550;2023-06-14T22:12:25;17.90;94.70
33927;DHT22;20485;50.992;5.550;2023-06-14T22:14:51;17.80;95.30
33927;DHT22;20485;50.992;5.550;2023-06-14T22:17:18;17.60;96.40
33927;DHT22;20485;50.992;5.550;2023-06-14T22:19:47;17.50;96.70
33927;DHT22;20485;50.992;5.550;2023-06-14T22:22:17;17.50;97.20
33927;DHT22;20485;50.992;5.550;2023-06-14T22:24:51;17.50;97.60
33927;DHT22;20485;50.992;5.550;2023-06-14T22:27:17;17.30;98.10
33927;DHT22;20485;50.992;5.550;2023-06-14T22:29:49;17.30;98.60
33927;DHT22;20485;50.992;5.550;2023-06-14T22:32:25;17.10;99.10
33927;DHT22;20485;50.992;5.550;2023-06-14T22:34:52;17.10;99.40
33927;DHT22;20485;50.992;5.550;2023-06-14T22:37:19;17.00;99.90
33927;DHT22;20485;50.992;5.550;2023-06-14T22:39:45;16.90;99.90
33927;DHT22;20485;50.992;5.550;2023-06-14T22:42:11;16.90;99.90
33927;DHT22;20485;50.992;5.550;2023-06-14T22:44:39;16.80;99.90
33927;DHT22;20485;50.992;5.550;2023-06-14T22:47:06;16.80;99.90
33927;DHT22;20485;50.992;5.550;2023-06-14T22:49:35;16.70;99.90
33927;DHT22;20485;50.992;5.550;2023-06-14T22:52:05;16.70;99.90
33927;DHT22;20485;50.992;5.550;2023-06-14T22:54:31;16.60;99.90
33927;DHT22;20485;50.992;5.550;2023-06-14T22:56:57;16.60;99.90
33927;DHT22;20485;50.992;5.550;2023-06-14T22:59:24;16.50;99.90
33927;DHT22;20485;50.992;5.550;2023-06-14T23:01:50;16.00;99.90
33927;DHT22;20485;50.992;5.550;2023-06-14T23:04:16;16.30;99.90
33927;DHT22;20485;50.992;5.550;2023-06-14T23:06:43;16.30;99.90
33927;DHT22;20485;50.992;5.550;2023-06-14T23:09:09;16.30;99.90
33927;DHT22;20485;50.992;5.550;2023-06-14T23:11:37;16.20;99.90
33927;DHT22;20485;50.992;5.550;2023-06-14T23:14:03;16.10;99.90
33927;DHT22;20485;50.992;5.550;2023-06-14T23:16:29;16.10;99.90
33927;DHT22;20485;50.992;5.550;2023-06-14T23:18:56;16.10;99.90
33927;DHT22;20485;50.992;5.550;2023-06-14T23:21:22;16.10;99.90
33927;DHT22;20485;50.992;5.550;2023-06-14T23:23:48;16.00;99.90
33927;DHT22;20485;50.992;5.550;2023-06-14T23:26:16;16.00;99.90
33927;DHT22;20485;50.992;5.550;2023-06-14T23:28:44;15.90;99.90
33927;DHT22;20485;50.992;5.550;2023-06-14T23:31:19;15.90;99.90
33927;DHT22;20485;50.992;5.550;2023-06-14T23:33:46;15.00;99.90
33927;DHT22;20485;50.992;5.550;2023-06-14T23:36:14;15.90;99.90
33927;DHT22;20485;50.992;5.550;2023-06-14T23:38:40;15.90;99.90
33927;DHT22;20485;50.992;5.550;2023-06-14T23:41:13;15.80;99.90
33927;DHT22;20485;50.992;5.550;2023-06-14T23:43:40;15.80;99.90
33927;DHT22;20485;50.992;5.550;2023-06-14T23:46:11;15.70;99.90
33927;DHT22;20485;50.992;5.550;2023-06-14T23:48:38;15.70;99.90
33927;DHT22;20485;50.992;5.550;2023-06-14T23:51:04;15.60;99.90
33927;DHT22;20485;50.992;5.550;2023-06-14T23:53:30;15.60;99.90
33927;DHT22;20485;50.992;5.550;2023-06-14T23:55:59;15.50;99.90
33927;DHT22;20485;50.992;5.550;2023-06-14T23:58:26;15.50;99.90
